Time;durP1;ratioP1;P1;durP2;ratioP2;P2;SDS_P1;SDS_P2;PMS_P1;PMS_P2;Temp;Humidity;BMP_temperature;BMP_pressure;BME280_temperature;BME280_humidity;BME280_pressure;Samples;Min_cycle;Max_cycle;Signal;HPM_P1;HPM_P2
2022/10/17 00:01:02;;;;;;;;;;;20.10;99.90;;;;;;5071768;28;20004;-69
2022/10/17 00:03:28;;;;;;;;;;;20.10;99.90;;;;;;5071708;28;20298;-69
2022/10/17 00:05:53;;;;;;;;;;;20.10;99.90;;;;;;5072163;28;20756;-69
2022/10/17 00:08:19;;;;;;;;;;;20.10;99.90;;;;;;5071874;28;19912;-69
2022/10/17 00:10:45;;;;;;;;;;;20.10;99.90;;;;;;5072306;28;19917;-69
2022/10/17 00:13:11;;;;;;;;;;;20.10;99.90;;;;;;5071809;28;19991;-69
2022/10/17 00:15:36;;;;;;;;;;;20.10;99.90;;;;;;5071789;28;19913;-69
2022/10/17 00:18:02;;;;;;;;;;;20.10;99.90;;;;;;5071341;28;19958;-69
2022/10/17 00:20:29;;;;;;;;;;;20.00;99.90;;;;;;5071825;28;19915;-69
2022/10/17 00:22:55;;;;;;;;;;;20.10;99.90;;;;;;5072352;28;19911;-69
2022/10/17 00:25:20;;;;;;;;;;;20.00;99.90;;;;;;5075707;28;19931;-69
2022/10/17 00:27:46;;;;;;;;;;;19.90;99.90;;;;;;5075625;28;19904;-69
2022/10/17 00:30:14;;;;;;;;;;;19.90;99.90;;;;;;5074485;28;19920;-69
2022/10/17 00:32:40;;;;;;;;;;;19.80;99.90;;;;;;5075668;28;19905;-69
2022/10/17 00:35:06;;;;;;;;;;;19.80;99.90;;;;;;5075687;28;19965;-69
2022/10/17 00:37:32;;;;;;;;;;;19.70;99.90;;;;;;5075427;28;19905;-69
2022/10/17 00:39:57;;;;;;;;;;;19.60;99.90;;;;;;5075431;28;20364;-68
2022/10/17 00:42:23;;;;;;;;;;;19.60;99.90;;;;;;5075473;28;19908;-70
2022/10/17 00:44:49;;;;;;;;;;;19.60;99.90;;;;;;5075157;28;19959;-70
2022/10/17 00:47:17;;;;;;;;;;;19.40;99.90;;;;;;5075294;28;19944;-70
2022/10/17 00:49:43;;;;;;;;;;;19.30;99.90;;;;;;5075476;28;19904;-70
2022/10/17 00:52:10;;;;;;;;;;;19.40;99.90;;;;;;5075178;28;19905;-70
2022/10/17 00:54:37;;;;;;;;;;;19.30;99.90;;;;;;5075226;28;19912;-68
2022/10/17 00:57:03;;;;;;;;;;;19.20;99.90;;;;;;5075044;28;20282;-70
2022/10/17 00:59:31;;;;;;;;;;;19.20;99.90;;;;;;5075142;28;19905;-68
2022/10/17 01:02:05;;;;;;;;;;;19.30;99.90;;;;;;5075176;28;19987;-70
2022/10/17 01:04:31;;;;;;;;;;;19.20;99.90;;;;;;5074888;28;20010;-70
2022/10/17 01:06:56;;;;;;;;;;;19.10;99.90;;;;;;5075333;28;20473;-70
2022/10/17 01:09:22;;;;;;;;;;;19.00;99.90;;;;;;5074782;28;20417;-70
2022/10/17 01:11:54;;;;;;;;;;;18.90;99.90;;;;;;5074832;28;19905;-70
2022/10/17 01:14:26;;;;;;;;;;;19.00;99.90;;;;;;5074858;28;19911;-70
2022/10/17 01:17:04;;;;;;;;;;;19.10;99.90;;;;;;5074635;28;19904;-69
2022/10/17 01:19:49;;;;;;;;;;;18.90;99.90;;;;;;5075154;28;20359;-69
2022/10/17 01:22:21;;;;;;;;;;;18.80;99.90;;;;;;5074669;28;19915;-69
2022/10/17 01:25:04;;;;;;;;;;;18.90;99.90;;;;;;5074747;28;19913;-69
2022/10/17 01:27:39;;;;;;;;;;;18.90;99.90;;;;;;5073199;28;20310;-69
2022/10/17 01:30:14;;;;;;;;;;;18.70;99.90;;;;;;5074156;28;19995;-68
2022/10/17 01:32:52;;;;;;;;;;;18.60;99.90;;;;;;5074409;28;20065;-69
2022/10/17 01:35:17;;;;;;;;;;;18.50;99.90;;;;;;5073582;28;19911;-69
2022/10/17 01:37:46;;;;;;;;;;;18.50;99.90;;;;;;5074227;28;19904;-69
2022/10/17 01:40:21;;;;;;;;;;;18.50;99.90;;;;;;5074343;28;19904;-70
2022/10/17 01:42:47;;;;;;;;;;;18.50;99.90;;;;;;5074505;28;19908;-70
2022/10/17 01:45:18;;;;;;;;;;;18.40;99.90;;;;;;5073615;28;20397;-70
2022/10/17 01:47:45;;;;;;;;;;;18.40;99.90;;;;;;5074105;28;19961;-71
2022/10/17 01:50:14;;;;;;;;;;;18.50;99.90;;;;;;5074108;28;19904;-72
2022/10/17 01:52:52;;;;;;;;;;;18.60;99.90;;;;;;5074161;28;19904;-71
2022/10/17 01:55:19;;;;;;;;;;;18.50;99.90;;;;;;5074170;28;19908;-72
2022/10/17 01:57:48;;;;;;;;;;;18.40;99.90;;;;;;5073819;28;19904;-71
2022/10/17 02:00:17;;;;;;;;;;;18.40;99.90;;;;;;5074090;28;19908;-71
2022/10/17 02:02:43;;;;;;;;;;;18.50;99.90;;;;;;5074063;28;19931;-71
2022/10/17 02:05:09;;;;;;;;;;;18.50;99.90;;;;;;5073789;28;19916;-70
2022/10/17 02:07:35;;;;;;;;;;;18.50;99.90;;;;;;5073812;28;19904;-71
2022/10/17 02:10:03;;;;;;;;;;;18.40;99.90;;;;;;5073685;28;19904;-71
2022/10/17 02:12:41;;;;;;;;;;;18.40;99.90;;;;;;5073769;28;19950;-71
2022/10/17 02:15:41;;;;;;;;;;;18.40;99.90;;;;;;5073579;28;20437;-71
2022/10/17 02:18:27;;;;;;;;;;;18.40;99.90;;;;;;5011412;28;20009;-71
2022/10/17 02:20:56;;;;;;;;;;;18.30;99.90;;;;;;5011524;28;19920;-71
2022/10/17 02:23:24;;;;;;;;;;;18.40;99.90;;;;;;5011742;28;19905;-71
2022/10/17 02:25:59;;;;;;;;;;;18.50;99.90;;;;;;5011476;28;19920;-71
2022/10/17 02:28:36;;;;;;;;;;;18.60;99.90;;;;;;5011351;28;19910;-71
2022/10/17 02:31:14;;;;;;;;;;;18.50;99.90;;;;;;5011481;28;20443;-71
2022/10/17 02:33:55;;;;;;;;;;;18.40;99.90;;;;;;5011470;28;19905;-71
2022/10/17 02:36:22;;;;;;;;;;;18.60;99.90;;;;;;5011516;28;20434;-71
2022/10/17 02:38:49;;;;;;;;;;;18.70;99.90;;;;;;4995213;28;19955;-71
2022/10/17 02:41:16;;;;;;;;;;;18.70;99.90;;;;;;5011326;28;19905;-71
2022/10/17 02:43:44;;;;;;;;;;;18.60;99.90;;;;;;5010991;28;20299;-71
2022/10/17 02:46:10;;;;;;;;;;;18.70;99.90;;;;;;5010556;28;19913;-71
2022/10/17 02:48:40;;;;;;;;;;;18.70;99.90;;;;;;5011645;28;20295;-71
2022/10/17 02:51:08;;;;;;;;;;;18.60;99.90;;;;;;5014777;28;20005;-71
2022/10/17 02:53:42;;;;;;;;;;;18.50;99.90;;;;;;5052843;28;20283;-72
2022/10/17 02:56:12;;;;;;;;;;;18.60;99.90;;;;;;5053100;28;20003;-72
2022/10/17 02:58:38;;;;;;;;;;;18.60;99.90;;;;;;5052707;28;19911;-72
2022/10/17 03:01:04;;;;;;;;;;;18.50;99.90;;;;;;5052890;28;19912;-72
2022/10/17 03:03:31;;;;;;;;;;;18.50;99.90;;;;;;5053128;28;19904;-72
2022/10/17 03:05:56;;;;;;;;;;;18.50;99.90;;;;;;5052768;28;19924;-72
2022/10/17 03:08:22;;;;;;;;;;;18.50;99.90;;;;;;5052838;28;19908;-72
2022/10/17 03:10:48;;;;;;;;;;;18.40;99.90;;;;;;5053099;28;19905;-72
2022/10/17 03:13:14;;;;;;;;;;;18.40;99.90;;;;;;5052551;28;19904;-72
2022/10/17 03:15:40;;;;;;;;;;;18.40;99.90;;;;;;5052672;28;19958;-71
2022/10/17 03:18:05;;;;;;;;;;;18.40;99.90;;;;;;5052511;28;19925;-72
2022/10/17 03:20:31;;;;;;;;;;;18.40;99.90;;;;;;5052917;28;19908;-72
2022/10/17 03:22:56;;;;;;;;;;;18.40;99.90;;;;;;5053019;28;19909;-72
2022/10/17 03:25:22;;;;;;;;;;;18.50;99.90;;;;;;5052338;28;20345;-72
2022/10/17 03:27:47;;;;;;;;;;;18.50;99.90;;;;;;5052249;28;20283;-72
2022/10/17 03:30:13;;;;;;;;;;;18.40;99.90;;;;;;5052884;28;19931;-72
2022/10/17 03:32:39;;;;;;;;;;;18.30;99.90;;;;;;5051171;28;19905;-72
2022/10/17 03:35:04;;;;;;;;;;;18.20;99.90;;;;;;5052454;28;19912;-72
2022/10/17 03:37:30;;;;;;;;;;;18.20;99.90;;;;;;5052325;28;19974;-72
2022/10/17 03:39:55;;;;;;;;;;;18.20;99.90;;;;;;5052701;28;20062;-72
2022/10/17 03:42:21;;;;;;;;;;;18.20;99.90;;;;;;5052040;28;19912;-72
2022/10/17 03:44:46;;;;;;;;;;;18.20;99.90;;;;;;5053221;28;19923;-71
2022/10/17 03:47:12;;;;;;;;;;;18.20;99.90;;;;;;5072267;28;20282;-72
2022/10/17 03:49:37;;;;;;;;;;;18.20;99.90;;;;;;5072282;28;20390;-72
2022/10/17 03:52:03;;;;;;;;;;;18.30;99.90;;;;;;5072266;28;20382;-71
2022/10/17 03:54:28;;;;;;;;;;;18.30;99.90;;;;;;5072037;28;20351;-71
2022/10/17 03:56:54;;;;;;;;;;;18.20;99.90;;;;;;5071645;28;19905;-71
2022/10/17 03:59:20;;;;;;;;;;;18.20;99.90;;;;;;5075186;28;19904;-71
2022/10/17 04:01:45;;;;;;;;;;;18.20;99.90;;;;;;5076362;28;20015;-71
2022/10/17 04:04:11;;;;;;;;;;;18.20;99.90;;;;;;5076222;28;19908;-72
2022/10/17 04:06:37;;;;;;;;;;;18.20;99.90;;;;;;5076427;28;19967;-72
2022/10/17 04:09:03;;;;;;;;;;;18.20;99.90;;;;;;5076355;28;19931;-71
2022/10/17 04:11:29;;;;;;;;;;;18.10;99.90;;;;;;5075693;28;19904;-71
2022/10/17 04:13:55;;;;;;;;;;;18.10;99.90;;;;;;5076153;28;19911;-71
2022/10/17 04:16:21;;;;;;;;;;;18.10;99.90;;;;;;5076156;28;19908;-72
2022/10/17 04:18:51;;;;;;;;;;;18.10;99.90;;;;;;5075851;28;19924;-72
2022/10/17 04:21:18;;;;;;;;;;;18.20;99.90;;;;;;5075962;28;19959;-72
2022/10/17 04:23:43;;;;;;;;;;;18.20;99.90;;;;;;5076173;28;19919;-71
2022/10/17 04:26:09;;;;;;;;;;;18.20;99.90;;;;;;5075606;28;19912;-71
2022/10/17 04:28:35;;;;;;;;;;;18.20;99.90;;;;;;5075775;28;19927;-71
2022/10/17 04:31:04;;;;;;;;;;;18.10;99.90;;;;;;5075832;28;19904;-71
2022/10/17 04:33:30;;;;;;;;;;;18.10;99.90;;;;;;5075659;28;20342;-71
2022/10/17 04:36:03;;;;;;;;;;;18.10;99.90;;;;;;5076201;28;20412;-72
2022/10/17 04:38:29;;;;;;;;;;;18.10;99.90;;;;;;5075592;28;19908;-71
2022/10/17 04:41:01;;;;;;;;;;;18.10;99.90;;;;;;5075309;28;20268;-71
2022/10/17 04:43:31;;;;;;;;;;;18.00;99.90;;;;;;5076076;28;19912;-72
2022/10/17 04:46:01;;;;;;;;;;;18.00;99.90;;;;;;5075265;28;19924;-72
2022/10/17 04:48:27;;;;;;;;;;;18.00;99.90;;;;;;5075901;28;19908;-71
2022/10/17 04:50:56;;;;;;;;;;;17.90;99.90;;;;;;5075273;28;19995;-72
2022/10/17 04:53:22;;;;;;;;;;;17.90;99.90;;;;;;5075433;28;20279;-71
2022/10/17 04:55:48;;;;;;;;;;;17.80;99.90;;;;;;5075355;28;19944;-71
2022/10/17 04:58:14;;;;;;;;;;;17.80;99.90;;;;;;5075331;28;20421;-71
2022/10/17 05:00:39;;;;;;;;;;;17.90;99.90;;;;;;5075375;28;19910;-71
2022/10/17 05:03:05;;;;;;;;;;;17.90;99.90;;;;;;5075647;28;19926;-71
2022/10/17 05:05:30;;;;;;;;;;;17.80;99.90;;;;;;5075042;28;20051;-71
2022/10/17 05:07:56;;;;;;;;;;;17.80;99.90;;;;;;5074833;28;19973;-71
2022/10/17 05:10:21;;;;;;;;;;;17.80;99.90;;;;;;5075104;28;19950;-72
2022/10/17 05:12:47;;;;;;;;;;;17.80;99.90;;;;;;5074558;28;20370;-72
2022/10/17 05:15:13;;;;;;;;;;;17.70;99.90;;;;;;5075454;28;19912;-71
2022/10/17 05:17:39;;;;;;;;;;;17.70;99.90;;;;;;5074815;28;19916;-71
2022/10/17 05:20:04;;;;;;;;;;;17.70;99.90;;;;;;5075228;28;20379;-71
2022/10/17 05:22:30;;;;;;;;;;;17.70;99.90;;;;;;5074658;28;20401;-71
2022/10/17 05:24:56;;;;;;;;;;;17.70;99.90;;;;;;5075349;28;19921;-72
2022/10/17 05:27:21;;;;;;;;;;;17.80;99.90;;;;;;5075085;28;19927;-72
2022/10/17 05:29:47;;;;;;;;;;;17.80;99.90;;;;;;5074959;28;19966;-72
2022/10/17 05:32:14;;;;;;;;;;;17.80;99.90;;;;;;5075140;28;19944;-71
2022/10/17 05:34:39;;;;;;;;;;;17.90;99.90;;;;;;5074659;28;19905;-71
2022/10/17 05:37:05;;;;;;;;;;;17.90;99.90;;;;;;5073245;28;19911;-72
2022/10/17 05:39:30;;;;;;;;;;;17.80;99.90;;;;;;5074515;28;19904;-71
2022/10/17 05:41:56;;;;;;;;;;;17.80;99.90;;;;;;5074980;28;19944;-72
2022/10/17 05:44:21;;;;;;;;;;;17.90;99.90;;;;;;5074471;28;19908;-71
2022/10/17 05:46:48;;;;;;;;;;;17.80;99.90;;;;;;5074141;28;19912;-71
2022/10/17 05:49:14;;;;;;;;;;;17.80;99.90;;;;;;5074397;28;19904;-71
2022/10/17 05:51:39;;;;;;;;;;;17.80;99.90;;;;;;5074492;28;20274;-71
2022/10/17 05:54:06;;;;;;;;;;;17.90;99.90;;;;;;5074299;28;19904;-71
2022/10/17 05:56:31;;;;;;;;;;;17.90;99.90;;;;;;5074519;28;19912;-71
2022/10/17 05:58:57;;;;;;;;;;;17.80;99.90;;;;;;5073959;28;19908;-72
2022/10/17 06:01:23;;;;;;;;;;;17.70;99.90;;;;;;5074185;28;19905;-72
2022/10/17 06:03:49;;;;;;;;;;;17.70;99.90;;;;;;5074035;28;19909;-72
2022/10/17 06:06:15;;;;;;;;;;;17.80;99.90;;;;;;5073808;28;20324;-72
2022/10/17 06:08:40;;;;;;;;;;;17.70;99.90;;;;;;5074001;28;20251;-72
2022/10/17 06:11:06;;;;;;;;;;;17.70;99.90;;;;;;5073752;28;19905;-72
2022/10/17 06:13:32;;;;;;;;;;;17.80;99.90;;;;;;5073960;28;19904;-72
2022/10/17 06:15:57;;;;;;;;;;;17.80;99.90;;;;;;5074324;28;19904;-72
2022/10/17 06:18:23;;;;;;;;;;;17.70;99.90;;;;;;5074192;28;19920;-72
2022/10/17 06:20:49;;;;;;;;;;;17.60;99.90;;;;;;5072884;28;19908;-72
2022/10/17 06:23:14;;;;;;;;;;;17.60;99.90;;;;;;5073378;28;20359;-72
2022/10/17 06:25:40;;;;;;;;;;;17.50;99.90;;;;;;5072482;28;19917;-72
2022/10/17 06:28:05;;;;;;;;;;;17.50;99.90;;;;;;5071998;28;19904;-72
2022/10/17 06:30:31;;;;;;;;;;;17.50;99.90;;;;;;5074271;28;19995;-72
2022/10/17 06:32:57;;;;;;;;;;;17.50;99.90;;;;;;5073508;28;20259;-72
2022/10/17 06:35:22;;;;;;;;;;;17.50;99.90;;;;;;5072814;28;19920;-72
2022/10/17 06:37:48;;;;;;;;;;;17.40;99.90;;;;;;5073798;28;19983;-72
2022/10/17 06:40:15;;;;;;;;;;;17.50;99.90;;;;;;5073665;28;19965;-72
2022/10/17 06:42:41;;;;;;;;;;;17.50;99.90;;;;;;5073677;28;19912;-71
2022/10/17 06:45:07;;;;;;;;;;;17.40;99.90;;;;;;5073100;28;19916;-72
2022/10/17 06:47:33;;;;;;;;;;;17.50;99.90;;;;;;5073118;28;19904;-72
2022/10/17 06:49:58;;;;;;;;;;;17.40;99.90;;;;;;5072952;28;19904;-71
2022/10/17 06:52:24;;;;;;;;;;;17.40;99.90;;;;;;5073226;28;19905;-71
2022/10/17 06:54:50;;;;;;;;;;;17.40;99.90;;;;;;5073645;28;19916;-72
2022/10/17 06:57:16;;;;;;;;;;;17.40;99.90;;;;;;5073198;28;19931;-72
2022/10/17 06:59:42;;;;;;;;;;;17.50;99.90;;;;;;5073061;28;20350;-72
2022/10/17 07:02:08;;;;;;;;;;;17.50;99.90;;;;;;5072890;28;19905;-72
2022/10/17 07:04:34;;;;;;;;;;;17.50;99.90;;;;;;5072592;28;19981;-72
2022/10/17 07:07:01;;;;;;;;;;;17.40;99.90;;;;;;5072945;28;20358;-72
2022/10/17 07:09:27;;;;;;;;;;;17.40;99.90;;;;;;5073158;28;19905;-72
2022/10/17 07:11:53;;;;;;;;;;;17.50;99.90;;;;;;5072823;28;19905;-71
2022/10/17 07:14:18;;;;;;;;;;;17.50;99.90;;;;;;5072949;28;20317;-71
2022/10/17 07:16:44;;;;;;;;;;;17.50;99.90;;;;;;5072892;28;19905;-71
2022/10/17 07:19:10;;;;;;;;;;;17.50;99.90;;;;;;5072251;28;19927;-72
2022/10/17 07:21:35;;;;;;;;;;;17.50;99.90;;;;;;5073222;28;19904;-72
2022/10/17 07:24:01;;;;;;;;;;;17.50;99.90;;;;;;5072783;28;19904;-72
2022/10/17 07:26:26;;;;;;;;;;;17.50;99.90;;;;;;5072829;28;19912;-72
2022/10/17 07:28:53;;;;;;;;;;;17.50;99.90;;;;;;5072558;28;19904;-71
2022/10/17 07:31:20;;;;;;;;;;;17.40;99.90;;;;;;5072552;28;20343;-71
2022/10/17 07:33:45;;;;;;;;;;;17.50;99.90;;;;;;5072160;28;20398;-71
2022/10/17 07:36:14;;;;;;;;;;;17.50;99.90;;;;;;5072470;28;19904;-71
2022/10/17 07:38:39;;;;;;;;;;;17.40;99.90;;;;;;5072488;28;19904;-71
2022/10/17 07:41:06;;;;;;;;;;;17.40;99.90;;;;;;5072507;28;19911;-71
2022/10/17 07:43:32;;;;;;;;;;;17.40;99.90;;;;;;5072445;28;19905;-71
2022/10/17 07:45:59;;;;;;;;;;;17.30;99.90;;;;;;5072029;28;19951;-71
2022/10/17 07:48:25;;;;;;;;;;;17.30;99.90;;;;;;5072071;28;19974;-73
2022/10/17 07:50:50;;;;;;;;;;;17.30;99.90;;;;;;5072078;28;20367;-71
2022/10/17 07:53:16;;;;;;;;;;;17.30;99.90;;;;;;5072461;28;19909;-71
2022/10/17 07:55:42;;;;;;;;;;;17.40;99.90;;;;;;5072152;28;19916;-70
2022/10/17 07:58:08;;;;;;;;;;;17.40;99.90;;;;;;5072514;28;19905;-71
2022/10/17 08:00:33;;;;;;;;;;;17.40;99.90;;;;;;5071251;28;19958;-72
2022/10/17 08:02:59;;;;;;;;;;;17.40;99.90;;;;;;5071896;28;19911;-72
2022/10/17 08:05:25;;;;;;;;;;;17.40;99.90;;;;;;5072167;28;19920;-71
2022/10/17 08:07:50;;;;;;;;;;;17.40;99.90;;;;;;5071660;28;19904;-71
2022/10/17 08:10:16;;;;;;;;;;;17.40;99.90;;;;;;5072023;28;19904;-71
2022/10/17 08:12:41;;;;;;;;;;;17.40;99.90;;;;;;5071560;28;19911;-72
2022/10/17 08:15:07;;;;;;;;;;;17.40;99.90;;;;;;5071101;28;20492;-72
2022/10/17 08:17:34;;;;;;;;;;;17.50;99.90;;;;;;5070947;28;19919;-72
2022/10/17 08:19:59;;;;;;;;;;;17.50;99.90;;;;;;5071401;28;20298;-72
2022/10/17 08:22:25;;;;;;;;;;;17.60;99.90;;;;;;5071348;28;19904;-62
2022/10/17 08:24:50;;;;;;;;;;;17.60;99.90;;;;;;5071827;28;20389;-62
2022/10/17 08:27:22;;;;;;;;;;;17.70;99.90;;;;;;5071484;28;19978;-63
2022/10/17 08:29:51;;;;;;;;;;;17.70;99.90;;;;;;5071966;28;19958;-60
2022/10/17 08:32:17;;;;;;;;;;;17.70;99.90;;;;;;5071884;28;19909;-62
2022/10/17 08:34:43;;;;;;;;;;;17.80;99.90;;;;;;5071917;28;19920;-60
2022/10/17 08:37:09;;;;;;;;;;;17.80;99.90;;;;;;5070676;28;20276;-61
2022/10/17 08:39:34;;;;;;;;;;;18.00;99.90;;;;;;5070424;28;20387;-63
2022/10/17 08:42:12;;;;;;;;;;;18.30;99.90;;;;;;5071022;28;19908;-62
2022/10/17 08:45:01;;;;;;;;;;;18.80;99.90;;;;;;5070132;28;19913;-65
2022/10/17 08:47:29;;;;;;;;;;;18.60;99.90;;;;;;5070676;28;19912;-66
2022/10/17 08:49:56;;;;;;;;;;;18.60;99.90;;;;;;5073723;28;19905;-61
2022/10/17 08:52:31;;;;;;;;;;;18.60;99.90;;;;;;5074591;28;19978;-61
2022/10/17 08:54:58;;;;;;;;;;;18.50;99.90;;;;;;5074048;28;19962;-62
2022/10/17 08:57:24;;;;;;;;;;;18.50;99.90;;;;;;5074410;28;19908;-61
2022/10/17 08:59:52;;;;;;;;;;;18.40;99.90;;;;;;5074008;28;20405;-62
2022/10/17 09:02:32;;;;;;;;;;;18.40;99.90;;;;;;5074135;28;19982;-62
2022/10/17 09:05:13;;;;;;;;;;;18.40;99.90;;;;;;5072678;28;19912;-62
2022/10/17 09:08:02;;;;;;;;;;;18.60;99.90;;;;;;5073072;28;19947;-61
2022/10/17 09:10:33;;;;;;;;;;;18.70;99.90;;;;;;5074227;28;19957;-62
2022/10/17 09:13:18;;;;;;;;;;;18.90;99.90;;;;;;5073777;28;20006;-62
2022/10/17 09:15:52;;;;;;;;;;;19.00;99.90;;;;;;5072595;28;19924;-62
2022/10/17 09:18:24;;;;;;;;;;;19.00;99.90;;;;;;5072945;28;19925;-62
2022/10/17 09:21:25;;;;;;;;;;;19.20;99.90;;;;;;5071127;28;20294;-62
2022/10/17 09:23:53;;;;;;;;;;;19.30;99.90;;;;;;5012107;28;19905;-62
2022/10/17 09:26:19;;;;;;;;;;;19.50;99.90;;;;;;5011295;28;19972;-62
2022/10/17 09:28:49;;;;;;;;;;;19.80;99.90;;;;;;5011233;28;20448;-62
2022/10/17 09:31:14;;;;;;;;;;;20.00;99.90;;;;;;5011558;28;19992;-63
2022/10/17 09:33:41;;;;;;;;;;;20.20;99.90;;;;;;5012231;28;20002;-63
2022/10/17 09:36:11;;;;;;;;;;;20.30;99.90;;;;;;5011501;28;19910;-63
2022/10/17 09:38:48;;;;;;;;;;;20.30;99.90;;;;;;5011599;28;19909;-61
2022/10/17 09:41:21;;;;;;;;;;;20.60;99.90;;;;;;5011458;28;19906;-63
2022/10/17 09:43:47;;;;;;;;;;;20.90;99.90;;;;;;5011570;28;19909;-62
2022/10/17 09:46:17;;;;;;;;;;;20.90;99.90;;;;;;5011311;28;19980;-62
2022/10/17 09:48:47;;;;;;;;;;;21.10;99.90;;;;;;5011528;28;20303;-63
2022/10/17 09:51:13;;;;;;;;;;;21.20;99.90;;;;;;5009690;28;19952;-63
2022/10/17 09:53:40;;;;;;;;;;;21.40;99.90;;;;;;5011540;28;19968;-62
2022/10/17 09:56:14;;;;;;;;;;;21.20;99.90;;;;;;5010262;28;19905;-64
2022/10/17 09:58:40;;;;;;;;;;;21.60;99.90;;;;;;5064051;28;19927;-63
2022/10/17 10:01:15;;;;;;;;;;;21.60;99.90;;;;;;5073279;28;19908;-64
2022/10/17 10:03:40;;;;;;;;;;;21.60;99.90;;;;;;5073192;28;19904;-65
2022/10/17 10:06:12;;;;;;;;;;;21.50;99.90;;;;;;5072811;28;19939;-69
2022/10/17 10:08:50;;;;;;;;;;;21.50;99.90;;;;;;5072487;28;19908;-68
2022/10/17 10:11:16;;;;;;;;;;;21.60;99.90;;;;;;5072953;28;20255;-67
2022/10/17 10:13:42;;;;;;;;;;;21.60;99.90;;;;;;5073509;28;19927;-67
2022/10/17 10:16:16;;;;;;;;;;;21.60;99.90;;;;;;5073704;28;20359;-67
2022/10/17 10:18:42;;;;;;;;;;;21.70;99.90;;;;;;5073441;28;19995;-68
2022/10/17 10:21:11;;;;;;;;;;;21.90;99.90;;;;;;5073477;28;19944;-68
2022/10/17 10:23:40;;;;;;;;;;;21.90;99.90;;;;;;5073248;28;19961;-69
2022/10/17 10:26:21;;;;;;;;;;;21.90;99.90;;;;;;5073292;28;20451;-68
2022/10/17 10:28:57;;;;;;;;;;;21.90;99.90;;;;;;5073591;28;19909;-68
2022/10/17 10:31:34;;;;;;;;;;;21.90;99.90;;;;;;5073622;28;19904;-69
2022/10/17 10:34:01;;;;;;;;;;;21.90;99.90;;;;;;5073546;28;20017;-69
2022/10/17 10:36:44;;;;;;;;;;;21.90;99.90;;;;;;5073566;28;19949;-68
2022/10/17 10:39:15;;;;;;;;;;;21.90;99.90;;;;;;5073453;28;19915;-68
2022/10/17 10:41:47;;;;;;;;;;;22.10;99.90;;;;;;5073444;28;19911;-68
2022/10/17 10:44:14;;;;;;;;;;;22.20;99.90;;;;;;5073251;28;20007;-66
2022/10/17 10:46:39;;;;;;;;;;;22.20;99.90;;;;;;5072862;28;19917;-68
2022/10/17 10:49:25;;;;;;;;;;;22.30;99.90;;;;;;5073421;28;20282;-68
2022/10/17 10:51:51;;;;;;;;;;;22.50;99.90;;;;;;5073055;28;20347;-68
2022/10/17 10:54:36;;;;;;;;;;;22.60;99.90;;;;;;5073353;28;19905;-68
2022/10/17 10:57:05;;;;;;;;;;;23.00;99.90;;;;;;5072011;28;19905;-68
2022/10/17 10:59:30;;;;;;;;;;;23.10;99.90;;;;;;5073115;28;20003;-69
2022/10/17 11:02:03;;;;;;;;;;;22.90;99.90;;;;;;5072964;28;19997;-68
2022/10/17 11:04:35;;;;;;;;;;;23.10;99.90;;;;;;5072906;28;19967;-69
2022/10/17 11:07:03;;;;;;;;;;;23.50;99.90;;;;;;5072585;28;20262;-68
2022/10/17 11:10:01;;;;;;;;;;;23.60;99.90;;;;;;5072975;28;20355;-68
2022/10/17 11:12:30;;;;;;;;;;;23.10;99.90;;;;;;4991154;28;20427;-68
2022/10/17 11:15:34;;;;;;;;;;;22.80;99.90;;;;;;4991299;28;19906;-68
2022/10/17 11:17:59;;;;;;;;;;;23.20;99.90;;;;;;4971687;28;19918;-69
2022/10/17 11:20:34;;;;;;;;;;;23.50;99.90;;;;;;4971803;28;20399;-69
2022/10/17 11:23:19;;;;;;;;;;;23.70;99.90;;;;;;4971714;28;20008;-69
2022/10/17 11:25:47;;;;;;;;;;;24.60;99.90;;;;;;4971716;28;19914;-69
2022/10/17 11:28:17;;;;;;;;;;;24.80;99.90;;;;;;4971705;28;19949;-68
2022/10/17 11:31:03;;;;;;;;;;;24.50;99.90;;;;;;4971622;28;19953;-69
2022/10/17 11:33:31;;;;;;;;;;;24.60;99.90;;;;;;4971258;28;19930;-69
2022/10/17 11:36:01;;;;;;;;;;;24.60;99.90;;;;;;4971460;28;19909;-69
2022/10/17 11:38:35;;;;;;;;;;;24.40;99.90;;;;;;4971591;28;20026;-69
2022/10/17 11:41:02;;;;;;;;;;;24.00;99.90;;;;;;4971487;28;19918;-69
2022/10/17 11:43:47;;;;;;;;;;;24.50;99.90;;;;;;4971656;28;19917;-69
2022/10/17 11:46:18;;;;;;;;;;;25.10;99.90;;;;;;4958566;28;19926;-69
2022/10/17 11:48:55;;;;;;;;;;;24.70;99.90;;;;;;5018866;28;19911;-69
2022/10/17 11:51:20;;;;;;;;;;;25.20;99.90;;;;;;5052164;28;19958;-69
2022/10/17 11:54:04;;;;;;;;;;;25.30;99.90;;;;;;5051933;28;19995;-69
2022/10/17 11:56:44;;;;;;;;;;;25.20;99.90;;;;;;5052098;28;19947;-69
2022/10/17 11:59:13;;;;;;;;;;;25.00;99.90;;;;;;5052463;28;20374;-69
2022/10/17 12:01:38;;;;;;;;;;;25.20;99.90;;;;;;5052145;28;19905;-69
2022/10/17 12:04:10;;;;;;;;;;;25.30;99.90;;;;;;5052159;28;19911;-69
2022/10/17 12:06:35;;;;;;;;;;;25.00;99.90;;;;;;5051958;28;19909;-69
2022/10/17 12:09:19;;;;;;;;;;;25.70;99.90;;;;;;5051712;28;19905;-69
2022/10/17 12:11:52;;;;;;;;;;;25.70;99.90;;;;;;5059611;28;19963;-69
2022/10/17 12:14:36;;;;;;;;;;;25.40;99.90;;;;;;5072367;28;19908;-69
2022/10/17 12:17:03;;;;;;;;;;;25.60;99.90;;;;;;5071863;28;19911;-68
2022/10/17 12:19:33;;;;;;;;;;;25.50;99.90;;;;;;5072997;28;19909;-68
2022/10/17 12:22:01;;;;;;;;;;;25.10;99.90;;;;;;5075878;28;20116;-68
2022/10/17 12:24:31;;;;;;;;;;;25.00;99.90;;;;;;5075820;28;19908;-69
2022/10/17 12:26:57;;;;;;;;;;;25.30;99.90;;;;;;5075687;28;19958;-68
2022/10/17 12:29:27;;;;;;;;;;;25.40;99.90;;;;;;5075987;28;19908;-69
2022/10/17 12:31:52;;;;;;;;;;;25.50;99.90;;;;;;5076032;28;19927;-70
2022/10/17 12:34:19;;;;;;;;;;;25.70;99.90;;;;;;5075717;28;19904;-69
2022/10/17 12:36:45;;;;;;;;;;;25.90;99.90;;;;;;5075432;28;19947;-68
2022/10/17 12:39:13;;;;;;;;;;;25.70;99.90;;;;;;5075743;28;19943;-69
2022/10/17 12:41:39;;;;;;;;;;;25.70;99.90;;;;;;5075595;28;19957;-69
2022/10/17 12:44:24;;;;;;;;;;;25.50;99.90;;;;;;5075176;28;19904;-69
2022/10/17 12:46:50;;;;;;;;;;;25.30;99.90;;;;;;5048034;28;19915;-68
2022/10/17 12:49:19;;;;;;;;;;;25.40;99.90;;;;;;5055313;28;20294;-69
2022/10/17 12:52:03;;;;;;;;;;;25.30;99.90;;;;;;5055012;28;19913;-69
2022/10/17 12:54:29;;;;;;;;;;;25.10;99.90;;;;;;5055646;28;19904;-69
2022/10/17 12:56:56;;;;;;;;;;;25.30;99.90;;;;;;5055264;28;20014;-69
2022/10/17 12:59:27;;;;;;;;;;;25.30;99.90;;;;;;5055185;28;19904;-68
2022/10/17 13:01:54;;;;;;;;;;;25.20;99.90;;;;;;5055354;28;19927;-69
2022/10/17 13:04:20;;;;;;;;;;;25.30;99.90;;;;;;5055586;28;19912;-69
2022/10/17 13:06:47;;;;;;;;;;;25.40;99.90;;;;;;5054724;28;19913;-69
2022/10/17 13:09:30;;;;;;;;;;;25.50;99.90;;;;;;5055046;28;19999;-69
2022/10/17 13:11:57;;;;;;;;;;;25.70;99.90;;;;;;5064116;28;19950;-69
2022/10/17 13:14:24;;;;;;;;;;;25.80;99.90;;;;;;5074902;28;19911;-69
2022/10/17 13:16:59;;;;;;;;;;;25.70;99.90;;;;;;5074897;28;19905;-68
2022/10/17 13:19:28;;;;;;;;;;;25.80;99.90;;;;;;5074972;28;19916;-69
2022/10/17 13:21:57;;;;;;;;;;;25.60;99.90;;;;;;5074580;28;20346;-68
2022/10/17 13:24:28;;;;;;;;;;;25.60;99.90;;;;;;5074797;28;19908;-69
2022/10/17 13:26:53;;;;;;;;;;;25.40;99.90;;;;;;5074734;28;19931;-69
2022/10/17 13:29:20;;;;;;;;;;;25.50;99.90;;;;;;5074735;28;20396;-69
2022/10/17 13:31:50;;;;;;;;;;;25.60;99.90;;;;;;5074587;28;19911;-69
2022/10/17 13:34:21;;;;;;;;;;;25.60;99.90;;;;;;5074400;28;20329;-69
2022/10/17 13:36:47;;;;;;;;;;;25.60;99.90;;;;;;5074042;28;19908;-69
2022/10/17 13:39:14;;;;;;;;;;;25.60;99.90;;;;;;5074998;28;19911;-69
2022/10/17 13:41:40;;;;;;;;;;;25.60;99.90;;;;;;5074428;28;19928;-69
2022/10/17 13:44:16;;;;;;;;;;;25.60;99.90;;;;;;5074324;28;20356;-69
2022/10/17 13:46:43;;;;;;;;;;;25.50;99.90;;;;;;5074196;28;19919;-69
2022/10/17 13:49:10;;;;;;;;;;;25.60;99.90;;;;;;5074330;28;19958;-68
2022/10/17 13:51:36;;;;;;;;;;;25.60;99.90;;;;;;5073957;28;19912;-69
2022/10/17 13:54:15;;;;;;;;;;;25.60;99.90;;;;;;5074203;28;19912;-69
2022/10/17 13:56:41;;;;;;;;;;;25.70;99.90;;;;;;5074046;28;19928;-69
2022/10/17 13:59:17;;;;;;;;;;;25.80;99.90;;;;;;5074030;28;20363;-69
2022/10/17 14:01:43;;;;;;;;;;;25.90;99.90;;;;;;5073936;28;19994;-69
2022/10/17 14:04:09;;;;;;;;;;;25.80;99.90;;;;;;5073954;28;19997;-68
2022/10/17 14:06:40;;;;;;;;;;;25.80;99.90;;;;;;5073998;28;19954;-69
2022/10/17 14:09:15;;;;;;;;;;;25.40;99.90;;;;;;5073988;28;20415;-69
2022/10/17 14:11:42;;;;;;;;;;;25.60;99.90;;;;;;5074065;28;20389;-69
2022/10/17 14:14:19;;;;;;;;;;;25.40;99.90;;;;;;5073823;28;19905;-69
2022/10/17 14:16:45;;;;;;;;;;;25.30;99.90;;;;;;5073655;28;19987;-69
2022/10/17 14:19:27;;;;;;;;;;;25.20;99.90;;;;;;5073612;28;20398;-69
2022/10/17 14:21:53;;;;;;;;;;;25.20;99.90;;;;;;5072291;28;20420;-69
2022/10/17 14:24:22;;;;;;;;;;;25.40;99.90;;;;;;5072137;28;20045;-69
2022/10/17 14:26:57;;;;;;;;;;;25.50;99.90;;;;;;5073388;28;19904;-68